createdAt,value
2023-02-13T00:01:33.916Z,12.85
2023-02-13T00:04:04.460Z,14.13
2023-02-13T00:06:33.975Z,16.15
2023-02-13T00:09:05.152Z,19.08
2023-02-13T00:11:33.585Z,19.85
2023-02-13T00:14:00.846Z,20.80
2023-02-13T00:16:28.171Z,19.08
2023-02-13T00:18:55.365Z,18.25
2023-02-13T00:21:25.266Z,16.92
2023-02-13T00:23:52.545Z,15.18
2023-02-13T00:26:24.890Z,13.90
2023-02-13T00:28:52.156Z,12.63
2023-02-13T00:31:21.682Z,14.85
2023-02-13T00:33:49.128Z,15.85
2023-02-13T00:36:21.206Z,14.27
2023-02-13T00:38:50.835Z,16.17
2023-02-13T00:41:18.617Z,15.10
2023-02-13T00:43:49.495Z,14.80
2023-02-13T00:46:19.585Z,13.10
2023-02-13T00:48:46.974Z,12.75
2023-02-13T00:51:14.895Z,13.02
2023-02-13T00:53:42.136Z,11.85
2023-02-13T00:56:09.468Z,12.68
2023-02-13T00:58:39.365Z,12.25
2023-02-13T01:01:08.910Z,12.77
2023-02-13T01:03:38.460Z,12.43
2023-02-13T01:06:06.283Z,13.48
2023-02-13T01:08:39.852Z,12.52
2023-02-13T01:11:07.567Z,12.80
2023-02-13T01:13:34.859Z,13.05
2023-02-13T01:16:04.543Z,15.50
2023-02-13T01:18:31.841Z,13.73
2023-02-13T01:21:05.870Z,15.90
2023-02-13T01:23:39.981Z,16.33
2023-02-13T01:26:13.467Z,15.80
2023-02-13T01:28:40.760Z,16.08
2023-02-13T01:31:08.188Z,15.70
2023-02-13T01:33:37.608Z,17.52
2023-02-13T01:36:12.136Z,16.95
2023-02-13T01:38:40.118Z,15.93
2023-02-13T01:41:13.764Z,15.88
2023-02-13T01:43:49.264Z,15.85
2023-02-13T01:46:30.020Z,15.13
2023-02-13T01:49:07.561Z,16.67
2023-02-13T01:51:36.133Z,16.83
2023-02-13T01:54:14.834Z,16.50
2023-02-13T01:56:49.709Z,18.23
2023-02-13T01:59:23.132Z,17.17
2023-02-13T02:01:54.310Z,17.77
2023-02-13T02:04:32.246Z,17.77
2023-02-13T02:07:09.204Z,18.48
2023-02-13T02:09:41.069Z,17.30
2023-02-13T02:12:14.912Z,16.70
2023-02-13T02:14:43.258Z,17.73
2023-02-13T02:17:11.880Z,16.95
2023-02-13T02:20:16.945Z,16.50
2023-02-13T02:23:11.326Z,15.48
2023-02-13T02:26:10.277Z,15.90
2023-02-13T02:28:51.983Z,15.05
2023-02-13T02:31:31.327Z,15.35
2023-02-13T02:34:10.526Z,15.00
2023-02-13T02:37:21.825Z,16.27
2023-02-13T02:40:16.728Z,15.95
2023-02-13T02:42:52.306Z,16.88
2023-02-13T02:45:59.545Z,16.35
2023-02-13T02:48:54.500Z,15.82
2023-02-13T02:51:38.512Z,15.52
2023-02-13T02:54:39.896Z,15.38
2023-02-13T02:57:17.965Z,16.50
2023-02-13T03:00:06.670Z,14.90
2023-02-13T03:02:53.201Z,17.05
2023-02-13T03:05:47.847Z,16.33
2023-02-13T03:08:41.596Z,17.67
2023-02-13T03:13:57.336Z,17.98
2023-02-13T03:16:44.698Z,19.25
2023-02-13T03:19:44.924Z,17.80
2023-02-13T03:22:35.415Z,16.95
2023-02-13T03:25:18.905Z,16.38
2023-02-13T03:31:01.012Z,16.77
2023-02-13T03:33:35.313Z,17.83
2023-02-13T03:36:37.944Z,16.65
2023-02-13T03:39:29.642Z,17.85
2023-02-13T03:42:07.319Z,15.20
2023-02-13T03:45:09.244Z,14.45
2023-02-13T03:47:41.052Z,15.95
2023-02-13T03:50:09.786Z,15.73
2023-02-13T03:52:59.850Z,15.52
2023-02-13T03:55:53.661Z,14.38
2023-02-13T04:01:15.165Z,13.48
2023-02-13T04:03:51.339Z,13.70
2023-02-13T04:06:32.896Z,14.00
2023-02-13T04:09:02.596Z,13.48
2023-02-13T04:11:48.400Z,13.15
2023-02-13T04:14:33.480Z,13.50
2023-02-13T04:17:08.220Z,13.07
2023-02-13T04:19:35.756Z,13.55
2023-02-13T04:22:05.765Z,12.75
2023-02-13T04:24:32.974Z,13.05
2023-02-13T04:27:02.766Z,13.13
2023-02-13T04:29:30.137Z,12.93
2023-02-13T04:31:57.389Z,13.27
2023-02-13T04:34:24.695Z,11.48
2023-02-13T04:36:51.932Z,14.02
2023-02-13T04:39:19.202Z,12.98
2023-02-13T04:41:46.471Z,11.70
2023-02-13T04:44:13.695Z,12.90
2023-02-13T04:46:41.009Z,12.02
2023-02-13T04:49:08.251Z,12.60
2023-02-13T04:51:35.495Z,11.38
2023-02-13T04:54:02.810Z,11.52
2023-02-13T04:56:30.046Z,11.07
2023-02-13T04:58:59.719Z,11.38
2023-02-13T05:01:27.138Z,12.07
2023-02-13T05:03:54.352Z,11.60
2023-02-13T05:06:21.613Z,11.68
2023-02-13T05:08:48.865Z,12.25
2023-02-13T05:11:16.113Z,10.75
2023-02-13T05:13:43.367Z,11.95
2023-02-13T05:16:10.662Z,12.30
2023-02-13T05:18:42.409Z,12.30
2023-02-13T05:21:28.162Z,12.25
2023-02-13T05:23:57.915Z,11.40
2023-02-13T05:26:25.197Z,12.02
2023-02-13T05:29:11.261Z,11.52
2023-02-13T05:31:38.574Z,10.68
2023-02-13T05:34:06.696Z,11.57
2023-02-13T05:36:36.037Z,11.90
2023-02-13T05:39:03.799Z,11.75
2023-02-13T05:41:31.072Z,12.13
2023-02-13T05:43:58.334Z,11.27
2023-02-13T05:46:25.680Z,11.43
2023-02-13T05:48:53.101Z,10.95
2023-02-13T05:51:23.067Z,10.25
2023-02-13T05:53:50.403Z,10.80
2023-02-13T05:56:20.106Z,11.45
2023-02-13T05:58:47.448Z,11.60
2023-02-13T06:01:17.061Z,11.98
2023-02-13T06:03:49.252Z,10.75
2023-02-13T06:06:17.212Z,11.88
2023-02-13T06:08:44.752Z,11.60
2023-02-13T06:11:15.037Z,12.07
2023-02-13T06:13:42.323Z,12.02
2023-02-13T06:16:12.826Z,11.13
2023-02-13T06:18:42.402Z,11.57
2023-02-13T06:21:09.665Z,11.65
2023-02-13T06:23:39.372Z,10.88
2023-02-13T06:26:08.343Z,13.25
2023-02-13T06:28:36.096Z,11.50
2023-02-13T06:31:03.656Z,11.68
2023-02-13T06:33:31.031Z,10.77
2023-02-13T06:35:58.399Z,10.95
2023-02-13T06:38:30.973Z,10.35
2023-02-13T06:41:01.274Z,11.50
2023-02-13T06:43:28.599Z,11.02
2023-02-13T06:45:56.230Z,11.30
2023-02-13T06:48:25.561Z,11.73
2023-02-13T06:50:55.302Z,11.30
2023-02-13T06:53:24.946Z,11.43
2023-02-13T06:55:53.559Z,11.00
2023-02-13T06:58:22.269Z,11.43
2023-02-13T07:00:50.678Z,11.70
2023-02-13T07:03:20.491Z,11.90
2023-02-13T07:05:48.031Z,12.15
2023-02-13T07:08:15.251Z,12.60
2023-02-13T07:10:45.121Z,11.50
2023-02-13T07:13:12.361Z,11.82
2023-02-13T07:15:39.653Z,11.65
2023-02-13T07:18:09.431Z,11.85
2023-02-13T07:20:39.230Z,11.18
2023-02-13T07:23:09.296Z,11.35
2023-02-13T07:25:36.629Z,11.38
2023-02-13T07:28:05.458Z,11.48
2023-02-13T07:30:35.434Z,11.20
2023-02-13T07:33:04.080Z,11.25
2023-02-13T07:35:37.664Z,10.18
2023-02-13T07:38:07.601Z,10.73
2023-02-13T07:40:37.327Z,11.80
2023-02-13T07:43:05.064Z,11.43
2023-02-13T07:45:34.736Z,11.43
2023-02-13T07:48:02.000Z,10.65
2023-02-13T07:50:29.496Z,10.30
2023-02-13T07:53:01.572Z,10.52
2023-02-13T07:55:33.687Z,10.00
2023-02-13T07:58:01.850Z,9.80
2023-02-13T08:00:31.745Z,9.10
2023-02-13T08:03:00.257Z,8.60
2023-02-13T08:05:28.583Z,8.65
2023-02-13T08:07:58.307Z,7.65
2023-02-13T08:10:46.256Z,8.10
2023-02-13T08:13:16.156Z,8.18
2023-02-13T08:15:47.107Z,7.95
2023-02-13T08:18:18.834Z,7.95
2023-02-13T08:20:47.218Z,7.17
2023-02-13T08:23:16.953Z,7.70
2023-02-13T08:25:47.826Z,8.23
2023-02-13T08:28:18.402Z,7.88
2023-02-13T08:30:45.698Z,8.23
2023-02-13T08:33:15.387Z,9.02
2023-02-13T08:35:45.115Z,8.40
2023-02-13T08:38:12.401Z,8.70
2023-02-13T08:40:39.693Z,8.40
2023-02-13T08:43:08.408Z,9.27
2023-02-13T08:45:36.417Z,9.02
2023-02-13T08:48:04.225Z,9.65
2023-02-13T08:50:32.164Z,9.65
2023-02-13T08:52:59.924Z,9.90
2023-02-13T08:55:28.410Z,9.52
2023-02-13T08:57:55.632Z,9.25
2023-02-13T09:00:23.006Z,8.85
2023-02-13T09:02:50.317Z,7.97
2023-02-13T09:05:17.614Z,7.50
2023-02-13T09:07:44.868Z,8.48
2023-02-13T09:10:12.339Z,8.43
2023-02-13T09:12:42.070Z,7.78
2023-02-13T09:15:09.789Z,7.57
2023-02-13T09:17:39.425Z,9.13
2023-02-13T09:20:07.259Z,7.60
2023-02-13T09:22:34.513Z,8.48
2023-02-13T09:25:04.397Z,7.85
2023-02-13T09:27:32.122Z,8.93
2023-02-13T09:30:04.496Z,8.23
2023-02-13T09:32:34.203Z,7.82
2023-02-13T09:35:01.541Z,8.35
2023-02-13T09:37:28.904Z,7.90
2023-02-13T09:39:56.148Z,7.90
2023-02-13T09:42:33.012Z,8.25
2023-02-13T09:45:03.399Z,7.95
2023-02-13T09:47:39.983Z,8.02
2023-02-13T09:50:24.033Z,7.68
2023-02-13T09:52:54.478Z,8.35
2023-02-13T09:55:40.749Z,7.47
2023-02-13T09:58:19.198Z,8.73
2023-02-13T10:00:52.883Z,8.32
2023-02-13T10:03:31.350Z,7.55
2023-02-13T10:06:30.277Z,8.10
2023-02-13T10:09:19.767Z,7.40
2023-02-13T10:12:25.047Z,7.55
2023-02-13T10:15:04.332Z,7.50
2023-02-13T10:17:41.575Z,7.85
2023-02-13T10:20:19.065Z,7.85
2023-02-13T10:23:17.769Z,7.18
2023-02-13T10:25:59.737Z,7.28
2023-02-13T10:29:26.696Z,7.22
2023-02-13T10:31:56.202Z,7.90
2023-02-13T10:34:28.530Z,8.50
2023-02-13T10:36:56.078Z,7.80
2023-02-13T10:39:26.372Z,7.28
2023-02-13T10:42:04.520Z,7.40
2023-02-13T10:44:53.560Z,7.25
2023-02-13T10:47:54.113Z,7.03
2023-02-13T10:50:45.272Z,6.78
2023-02-13T10:53:58.916Z,6.85
2023-02-13T10:56:55.348Z,6.53
2023-02-13T10:59:28.494Z,6.90
2023-02-13T11:02:15.160Z,6.65
2023-02-13T11:04:44.160Z,7.38
2023-02-13T11:07:17.361Z,6.82
2023-02-13T11:09:48.748Z,7.40
2023-02-13T11:12:34.175Z,6.15
2023-02-13T11:15:32.676Z,7.45
2023-02-13T11:18:15.497Z,7.28
2023-02-13T11:20:46.784Z,6.75
2023-02-13T11:23:37.547Z,6.75
2023-02-13T11:26:22.243Z,7.10
2023-02-13T11:28:56.794Z,6.55
2023-02-13T11:31:33.493Z,6.28
2023-02-13T11:34:22.023Z,6.28
2023-02-13T11:36:56.908Z,6.65
2023-02-13T11:39:29.404Z,7.30
2023-02-13T11:42:00.325Z,6.68
2023-02-13T11:44:32.394Z,6.55
2023-02-13T11:47:01.234Z,5.70
2023-02-13T11:49:35.738Z,6.50
2023-02-13T11:52:14.758Z,6.57
2023-02-13T11:54:55.040Z,6.03
2023-02-13T11:57:36.207Z,6.05
2023-02-13T12:00:40.261Z,5.85
2023-02-13T12:03:31.832Z,5.75
2023-02-13T12:06:15.501Z,5.82
2023-02-13T12:08:46.783Z,5.97
2023-02-13T12:11:39.184Z,5.65
2023-02-13T12:14:14.439Z,5.38
2023-02-13T12:16:44.209Z,5.97
2023-02-13T12:19:17.036Z,5.28
2023-02-13T12:22:08.542Z,5.38
2023-02-13T12:24:57.489Z,5.30
2023-02-13T12:27:43.040Z,5.65
2023-02-13T12:30:34.893Z,5.22
2023-02-13T12:33:36.168Z,5.55
2023-02-13T12:36:18.264Z,5.70
2023-02-13T12:39:11.744Z,5.70
2023-02-13T12:41:44.280Z,4.72
2023-02-13T12:44:50.150Z,5.17
2023-02-13T12:47:24.905Z,5.20
2023-02-13T12:50:00.712Z,4.93
2023-02-13T12:52:42.032Z,5.10
2023-02-13T12:55:39.986Z,4.85
2023-02-13T12:58:22.189Z,5.30
2023-02-13T13:01:01.627Z,4.57
2023-02-13T13:03:32.019Z,4.00
2023-02-13T13:06:21.482Z,4.68
2023-02-13T13:09:15.715Z,5.18
2023-02-13T13:12:10.477Z,5.10
2023-02-13T13:15:22.187Z,4.90
2023-02-13T13:17:59.893Z,4.88
2023-02-13T13:21:08.017Z,4.88
2023-02-13T13:24:01.193Z,4.80
2023-02-13T13:26:37.046Z,4.63
2023-02-13T13:29:19.257Z,4.60
2023-02-13T13:32:02.354Z,4.53
2023-02-13T13:34:31.717Z,4.00
2023-02-13T13:37:19.963Z,3.97
2023-02-13T13:39:57.697Z,4.80
2023-02-13T13:42:40.200Z,4.30
2023-02-13T13:45:36.706Z,4.20
2023-02-13T13:48:03.909Z,4.40
2023-02-13T13:50:39.073Z,4.32
2023-02-13T13:53:12.457Z,4.43
2023-02-13T13:55:52.794Z,4.63
2023-02-13T13:58:47.268Z,4.03
2023-02-13T14:01:29.379Z,4.22
2023-02-13T14:04:03.733Z,4.55
2023-02-13T14:06:45.957Z,4.35
2023-02-13T14:09:37.791Z,4.22
2023-02-13T14:12:33.922Z,4.60
2023-02-13T14:15:01.248Z,4.28
2023-02-13T14:17:46.815Z,4.53
2023-02-13T14:20:22.247Z,4.53
2023-02-13T14:22:49.617Z,4.32
2023-02-13T14:25:26.654Z,4.32
2023-02-13T14:28:05.681Z,4.20
2023-02-13T14:30:40.793Z,4.10
2023-02-13T14:33:22.643Z,4.82
2023-02-13T14:36:18.724Z,5.07
2023-02-13T14:38:58.886Z,5.05
2023-02-13T14:41:43.200Z,4.60
2023-02-13T14:44:20.905Z,4.55
2023-02-13T14:46:51.590Z,5.22
2023-02-13T14:49:22.119Z,4.68
2023-02-13T14:51:56.627Z,4.35
2023-02-13T14:54:26.864Z,4.80
2023-02-13T14:57:00.573Z,4.43
2023-02-13T14:59:36.782Z,4.80
2023-02-13T15:02:23.704Z,4.72
2023-02-13T15:05:07.039Z,4.72
2023-02-13T15:07:40.175Z,4.93
2023-02-13T15:10:07.519Z,4.22
2023-02-13T15:12:39.374Z,4.53
2023-02-13T15:15:31.072Z,3.80
2023-02-13T15:18:09.984Z,4.10
2023-02-13T15:20:43.845Z,4.30
2023-02-13T15:23:26.642Z,5.07
2023-02-13T15:26:04.469Z,4.43
2023-02-13T15:28:35.435Z,4.18
2023-02-13T15:31:19.484Z,3.67
2023-02-13T15:33:54.002Z,3.55
2023-02-13T15:36:26.991Z,4.22
2023-02-13T15:39:11.017Z,3.40
2023-02-13T15:41:42.505Z,3.58
2023-02-13T15:44:23.198Z,3.47
2023-02-13T15:46:52.251Z,3.40
2023-02-13T15:49:22.706Z,3.30
2023-02-13T15:51:51.076Z,3.50
2023-02-13T15:54:28.325Z,3.35
2023-02-13T15:57:01.153Z,3.05
2023-02-13T15:59:38.019Z,3.28
2023-02-13T16:02:15.276Z,2.90
2023-02-13T16:04:46.450Z,3.13
2023-02-13T16:07:15.011Z,2.42
2023-02-13T16:09:45.300Z,3.10
2023-02-13T16:12:24.493Z,2.90
2023-02-13T16:14:53.829Z,3.15
2023-02-13T16:17:34.390Z,3.03
2023-02-13T16:20:12.498Z,3.25
2023-02-13T16:22:50.097Z,3.22
2023-02-13T16:25:23.220Z,3.40
2023-02-13T16:27:53.208Z,3.63
2023-02-13T16:30:33.778Z,3.08
2023-02-13T16:33:21.420Z,3.35
2023-02-13T16:35:55.193Z,3.88
2023-02-13T16:38:28.449Z,3.03
2023-02-13T16:41:06.527Z,3.03
2023-02-13T16:43:54.304Z,3.03
2023-02-13T16:46:34.120Z,2.75
2023-02-13T16:49:13.037Z,3.13
2023-02-13T16:51:52.532Z,2.80
2023-02-13T16:54:58.154Z,2.65
2023-02-13T16:57:31.402Z,3.00
2023-02-13T17:00:18.618Z,2.50
2023-02-13T17:02:47.641Z,2.38
2023-02-13T17:05:23.643Z,2.90
2023-02-13T17:07:59.283Z,2.78
2023-02-13T17:10:34.562Z,2.60
2023-02-13T17:13:17.607Z,3.08
2023-02-13T17:15:47.463Z,2.90
2023-02-13T17:18:14.722Z,2.33
2023-02-13T17:20:46.038Z,3.38
2023-02-13T17:23:18.280Z,3.42
2023-02-13T17:25:49.603Z,3.03
2023-02-13T17:28:24.329Z,3.22
2023-02-13T17:30:57.000Z,3.15
2023-02-13T17:33:25.519Z,2.90
2023-02-13T17:35:53.249Z,3.65
2023-02-13T17:38:20.864Z,3.58
2023-02-13T17:40:48.713Z,4.45
2023-02-13T17:43:20.234Z,4.40
2023-02-13T17:45:50.776Z,3.25
2023-02-13T17:48:18.118Z,3.75
2023-02-13T17:50:50.467Z,3.55
2023-02-13T17:53:34.071Z,4.15
2023-02-13T17:56:03.517Z,4.35
2023-02-13T17:58:33.056Z,4.47
2023-02-13T18:01:00.718Z,3.60
2023-02-13T18:03:28.529Z,4.28
2023-02-13T18:05:56.138Z,4.35
2023-02-13T18:08:27.274Z,3.95
2023-02-13T18:10:57.114Z,3.78
2023-02-13T18:13:24.493Z,3.30
2023-02-13T18:15:52.273Z,3.70
2023-02-13T18:18:19.564Z,4.05
2023-02-13T18:20:54.509Z,4.30
2023-02-13T18:23:21.810Z,4.68
2023-02-13T18:25:49.067Z,4.80
2023-02-13T18:28:16.294Z,4.43
2023-02-13T18:30:43.732Z,4.25
2023-02-13T18:33:16.511Z,4.13
2023-02-13T18:35:43.859Z,4.78
2023-02-13T18:38:18.036Z,4.82
2023-02-13T18:40:47.900Z,4.05
2023-02-13T18:43:17.652Z,4.43
2023-02-13T18:45:47.312Z,3.83
2023-02-13T18:48:14.631Z,4.13
2023-02-13T18:50:42.743Z,4.38
2023-02-13T18:53:10.121Z,4.65
2023-02-13T18:55:40.325Z,4.47
2023-02-13T18:58:07.822Z,4.70
2023-02-13T19:00:37.758Z,4.32
2023-02-13T19:03:07.104Z,4.03
2023-02-13T19:05:42.321Z,4.70
2023-02-13T19:08:09.610Z,4.20
2023-02-13T19:10:36.908Z,4.57
2023-02-13T19:13:04.182Z,4.55
2023-02-13T19:15:31.561Z,4.63
2023-02-13T19:17:58.862Z,3.97
2023-02-13T19:20:28.770Z,3.95
2023-02-13T19:22:56.739Z,4.80
2023-02-13T19:25:24.049Z,4.53
2023-02-13T19:27:51.321Z,4.80
2023-02-13T19:30:18.660Z,4.22
2023-02-13T19:32:45.931Z,4.05
2023-02-13T19:35:15.629Z,4.63
2023-02-13T19:37:45.269Z,4.55
2023-02-13T19:40:14.013Z,4.97
2023-02-13T19:42:41.309Z,4.60
2023-02-13T19:45:11.545Z,4.85
2023-02-13T19:47:41.645Z,5.68
2023-02-13T19:50:09.860Z,4.97
2023-02-13T19:52:37.212Z,4.75
2023-02-13T19:55:04.688Z,5.00
2023-02-13T19:57:31.942Z,4.70
2023-02-13T20:00:04.679Z,3.83
2023-02-13T20:02:31.952Z,4.20
2023-02-13T20:04:59.262Z,4.32
2023-02-13T20:07:30.050Z,4.03
2023-02-13T20:09:57.305Z,4.47
2023-02-13T20:12:27.166Z,5.18
2023-02-13T20:14:55.961Z,4.43
2023-02-13T20:17:23.498Z,4.75
2023-02-13T20:19:56.274Z,4.20
2023-02-13T20:22:23.765Z,5.22
2023-02-13T20:24:51.040Z,4.88
2023-02-13T20:27:18.315Z,5.18
2023-02-13T20:29:47.683Z,4.38
2023-02-13T20:32:17.264Z,5.00
2023-02-13T20:34:59.046Z,4.63
2023-02-13T20:37:27.299Z,4.38
2023-02-13T20:39:56.911Z,3.88
2023-02-13T20:42:24.356Z,4.25
2023-02-13T20:44:51.656Z,5.15
2023-02-13T20:47:19.368Z,4.63
2023-02-13T20:49:46.635Z,4.50
2023-02-13T20:52:14.049Z,4.18
2023-02-13T20:54:41.308Z,5.25
2023-02-13T20:57:08.631Z,4.70
2023-02-13T20:59:35.864Z,4.20
2023-02-13T21:02:03.140Z,4.72
2023-02-13T21:04:32.661Z,5.57
2023-02-13T21:07:03.517Z,5.30
2023-02-13T21:09:30.827Z,4.93
2023-02-13T21:12:00.415Z,4.82
2023-02-13T21:14:27.835Z,4.88
2023-02-13T21:16:57.296Z,5.13
2023-02-13T21:19:24.699Z,5.80
2023-02-13T21:21:51.990Z,5.00
2023-02-13T21:24:22.160Z,5.10
2023-02-13T21:26:52.971Z,5.13
2023-02-13T21:29:22.679Z,5.43
2023-02-13T21:31:51.209Z,5.35
2023-02-13T21:34:18.757Z,6.53
2023-02-13T21:36:46.582Z,6.20
2023-02-13T21:39:16.514Z,5.85
2023-02-13T21:41:45.018Z,4.93
2023-02-13T21:44:15.629Z,5.65
2023-02-13T21:46:45.787Z,5.20
2023-02-13T21:49:19.491Z,5.35
2023-02-13T21:51:47.606Z,6.43
2023-02-13T21:54:14.901Z,5.60
2023-02-13T21:56:43.529Z,6.13
2023-02-13T21:59:15.459Z,5.80
2023-02-13T22:01:42.951Z,5.32
2023-02-13T22:04:10.761Z,5.72
2023-02-13T22:06:40.949Z,5.80
2023-02-13T22:09:13.814Z,5.47
2023-02-13T22:11:41.699Z,5.85
2023-02-13T22:14:13.394Z,5.20
2023-02-13T22:16:46.116Z,6.05
2023-02-13T22:19:15.420Z,5.20
2023-02-13T22:21:43.413Z,6.85
2023-02-13T22:24:11.343Z,5.50
2023-02-13T22:26:45.117Z,5.85
2023-02-13T22:29:15.329Z,6.13
2023-02-13T22:31:45.612Z,5.63
2023-02-13T22:34:16.180Z,6.93
2023-02-13T22:36:43.521Z,7.32
2023-02-13T22:39:12.086Z,8.05
2023-02-13T22:41:45.512Z,7.80
2023-02-13T22:46:40.197Z,6.75
2023-02-13T22:49:10.020Z,6.75
2023-02-13T22:51:40.109Z,7.32
2023-02-13T22:54:07.389Z,7.22
2023-02-13T22:56:37.038Z,7.53
2023-02-13T22:59:06.649Z,7.03
2023-02-13T23:01:37.270Z,7.40
2023-02-13T23:04:04.592Z,7.07
2023-02-13T23:06:31.875Z,7.10
2023-02-13T23:09:01.613Z,6.43
2023-02-13T23:11:47.834Z,7.18
2023-02-13T23:14:16.344Z,7.43
2023-02-13T23:17:05.394Z,6.90
2023-02-13T23:19:34.865Z,7.32
2023-02-13T23:22:02.080Z,7.60
2023-02-13T23:24:29.897Z,7.00
2023-02-13T23:26:59.681Z,6.95
2023-02-13T23:29:27.159Z,7.30
2023-02-13T23:31:54.495Z,7.03
2023-02-13T23:34:24.103Z,7.38
2023-02-13T23:36:51.348Z,6.38
2023-02-13T23:39:21.113Z,7.22
2023-02-13T23:41:48.348Z,7.57
2023-02-13T23:44:17.911Z,7.10
2023-02-13T23:46:47.416Z,7.53
2023-02-13T23:49:14.764Z,8.43
2023-02-13T23:51:44.191Z,8.52
2023-02-13T23:54:18.191Z,7.82
2023-02-13T23:56:48.652Z,8.88
2023-02-13T23:59:17.359Z,8.50
